Impacts TAF Board
For situational awareness. Not to be used for flight planning purposes.
IDs:

KMIA - Miami Intl, FL, US

Issued at 0300 UTC 18 Oct 2018
Updated at 0448 UTC 18 Oct 2018
Potential Impact None Slight Moderate High
Time0353Z 18/05Z 18/06Z 18/07Z 18/08Z 18/09Z 18/10Z 18/11Z 18/12Z 18/13Z 18/14Z 18/15Z 18/16Z 18/17Z>>
Type OBS PRVL PRVL PRVL PRVL PRVL PRVL PRVL PRVL PRVL PRVL PRVL PRVL PRVL
VIS 10 >6 >6 >6 >6 >6 >6 >6 >6 >6 >6 >6 >6 >6
CIG -- -- -- -- -- -- -- -- -- -- -- -- -- --
Cover FEW SCT SCT SCT SCT SCT SCT SCT SCT SCT SCT SCT SCT SCT
FltCat VFR VFR VFR VFR VFR VFR VFR VFR VFR VFR VFR VFR VFR VFR
WX -- -- -- -- -- -- -- -- -- -- -- -- -- --
WDir 80 70 70 70 70 70 70 70 70 70 70 70 90 90
WSpd 6 8 8 8 8 8 8 8 8 8 8 8 10 10
WGst -- -- -- -- -- -- -- -- -- -- -- -- -- --
Raw TAF
KMIA 180300Z 1803/1906 07008KT P6SM SCT025
  FM181600 09010KT P6SM SCT025 SCT250
  FM181800 08012KT P6SM BKN030 BKN250
  FM190200 07008KT P6SM FEW035 SCT250


Raw METAR
KMIA 180353Z 08006KT 10SM FEW024 27/24 A3012 RMK AO2 SLP201 T02720239
KMIA 180253Z 08006KT 10SM FEW024 27/24 A3012 RMK AO2 SLP200 T02720239 51010
KMIA 180153Z 08009KT 10SM FEW025 28/23 A3012 RMK AO2 SLP199 T02780233

METAR Board
Radar Display
Forecast Discussion
For situational awareness. Not to be used for flight planning purposes.